createdAt,value
2019-01-20T00:03:45.303Z,-1.80
2019-01-20T00:08:49.078Z,-1.80
2019-01-20T00:13:52.863Z,-1.80
2019-01-20T00:18:56.701Z,-1.80
2019-01-20T00:24:00.522Z,-1.80
2019-01-20T00:29:06.802Z,-1.90
2019-01-20T00:34:10.577Z,-2.00
2019-01-20T00:39:14.515Z,-1.90
2019-01-20T00:44:18.375Z,-1.90
2019-01-20T00:49:22.135Z,-1.80
2019-01-20T00:54:25.981Z,-1.80
2019-01-20T00:59:29.932Z,-1.90
2019-01-20T01:04:33.782Z,-1.80
2019-01-20T01:09:37.525Z,-1.80
2019-01-20T01:14:42.228Z,-1.80
2019-01-20T01:19:46.007Z,-1.90
2019-01-20T01:24:50.198Z,-1.90
2019-01-20T01:29:54.164Z,-2.00
2019-01-20T01:34:58.355Z,-2.00
2019-01-20T01:40:02.048Z,-2.20
2019-01-20T01:45:08.123Z,-2.20
2019-01-20T01:50:13.056Z,-2.10
2019-01-20T01:55:16.934Z,-2.10
2019-01-20T02:00:22.691Z,-2.00
2019-01-20T02:05:26.680Z,-2.10
2019-01-20T02:10:30.407Z,-2.10
2019-01-20T02:15:34.497Z,-2.20
2019-01-20T02:20:38.482Z,-2.20
2019-01-20T02:25:42.243Z,-2.10
2019-01-20T02:30:46.030Z,-2.20
2019-01-20T02:35:49.769Z,-2.20
2019-01-20T02:40:54.014Z,-2.20
2019-01-20T02:45:57.785Z,-2.20
2019-01-20T02:51:01.755Z,-2.30
2019-01-20T02:56:05.708Z,-2.70
2019-01-20T03:01:09.824Z,-3.00
2019-01-20T03:06:13.912Z,-3.30
2019-01-20T03:11:17.670Z,-3.40
2019-01-20T03:16:21.581Z,-3.50
2019-01-20T03:21:25.373Z,-3.60
2019-01-20T03:26:29.452Z,-3.40
2019-01-20T03:31:33.199Z,-3.20
2019-01-20T03:36:37.025Z,-3.50
2019-01-20T03:41:41.083Z,-3.50
2019-01-20T03:46:44.953Z,-3.70
2019-01-20T03:51:48.663Z,-3.60
2019-01-20T03:56:52.773Z,-3.50
2019-01-20T04:01:56.571Z,-3.30
2019-01-20T04:07:00.738Z,-3.80
2019-01-20T04:12:04.746Z,-4.20
2019-01-20T04:17:08.853Z,-4.20
2019-01-20T04:22:12.541Z,-4.40
2019-01-20T04:27:16.287Z,-4.40
2019-01-20T04:32:20.302Z,-4.50
2019-01-20T04:37:23.984Z,-4.60
2019-01-20T04:42:29.279Z,-4.60
2019-01-20T04:47:33.851Z,-4.30
2019-01-20T04:52:37.611Z,-4.20
2019-01-20T04:57:41.973Z,-4.40
2019-01-20T05:02:45.878Z,-4.70
2019-01-20T05:07:49.588Z,-4.80
2019-01-20T05:12:53.408Z,-4.90
2019-01-20T05:17:57.340Z,-4.80
2019-01-20T05:23:01.269Z,-4.70
2019-01-20T05:28:05.020Z,-4.90
2019-01-20T05:33:09.092Z,-5.00
2019-01-20T05:38:12.884Z,-5.10
2019-01-20T05:43:16.716Z,-5.10
2019-01-20T05:48:20.517Z,-5.20
2019-01-20T05:53:24.263Z,-5.10
2019-01-20T05:58:28.232Z,-5.20
2019-01-20T06:03:31.909Z,-5.20
2019-01-20T06:08:35.591Z,-5.20
2019-01-20T06:13:39.304Z,-5.30
2019-01-20T06:18:43.273Z,-5.30
2019-01-20T06:23:47.006Z,-5.30
2019-01-20T06:28:50.812Z,-5.40
2019-01-20T06:33:54.552Z,-5.40
2019-01-20T06:38:58.493Z,-5.40
2019-01-20T06:44:02.180Z,-5.40
2019-01-20T06:49:05.903Z,-5.50
2019-01-20T06:54:09.809Z,-5.40
2019-01-20T06:59:13.517Z,-5.30
2019-01-20T07:04:17.235Z,-5.40
2019-01-20T07:09:21.249Z,-5.40
2019-01-20T07:14:25.020Z,-5.20
2019-01-20T07:19:28.982Z,-4.80
2019-01-20T07:24:32.653Z,-4.90
2019-01-20T07:29:36.557Z,-4.60
2019-01-20T07:34:40.238Z,-4.20
2019-01-20T07:39:43.951Z,-3.40
2019-01-20T07:44:47.809Z,-1.80
2019-01-20T07:49:51.484Z,0.00
2019-01-20T07:54:55.281Z,1.60
2019-01-20T07:59:58.957Z,3.00
2019-01-20T08:05:02.667Z,4.20
2019-01-20T08:10:09.953Z,5.30
2019-01-20T08:15:14.178Z,6.30
2019-01-20T08:20:19.241Z,7.60
2019-01-20T08:25:23.274Z,8.70
2019-01-20T08:30:27.646Z,9.30
2019-01-20T08:35:31.326Z,8.60
2019-01-20T08:40:35.031Z,7.40
2019-01-20T08:45:45.479Z,8.30
2019-01-20T08:50:49.419Z,10.90
2019-01-20T08:55:53.371Z,12.30
2019-01-20T09:00:57.048Z,13.40
2019-01-20T09:06:00.999Z,13.50
2019-01-20T09:11:04.955Z,14.30
2019-01-20T09:16:08.707Z,14.30
2019-01-20T09:21:12.400Z,16.30
2019-01-20T09:26:16.087Z,16.50
2019-01-20T09:31:19.789Z,17.50
2019-01-20T09:36:23.793Z,18.00
2019-01-20T09:41:27.535Z,17.60
2019-01-20T09:46:31.312Z,17.80
2019-01-20T09:51:35.009Z,18.10
2019-01-20T09:56:39.219Z,18.40
2019-01-20T10:01:43.195Z,19.60
2019-01-20T10:06:47.041Z,20.90
2019-01-20T10:11:51.092Z,22.20
2019-01-20T10:16:54.773Z,21.90
2019-01-20T10:21:58.741Z,21.10
2019-01-20T10:27:02.637Z,20.50
2019-01-20T10:32:06.299Z,20.70
2019-01-20T10:37:10.223Z,20.70
2019-01-20T10:42:13.928Z,20.80
2019-01-20T10:47:17.875Z,21.30
2019-01-20T10:52:21.564Z,21.20
2019-01-20T10:57:25.569Z,20.70
2019-01-20T11:02:29.269Z,21.30
2019-01-20T11:07:33.617Z,22.80
2019-01-20T11:12:37.368Z,22.30
2019-01-20T11:17:41.060Z,22.40
2019-01-20T11:22:44.921Z,21.40
2019-01-20T11:27:48.832Z,21.70
2019-01-20T11:32:52.682Z,22.40
2019-01-20T11:37:56.535Z,23.20
2019-01-20T11:43:00.551Z,22.70
2019-01-20T11:48:04.677Z,21.60
2019-01-20T11:53:08.394Z,22.00
2019-01-20T11:58:12.074Z,22.00
2019-01-20T12:03:15.793Z,22.50
2019-01-20T12:08:19.481Z,22.60
2019-01-20T12:13:27.695Z,22.90
2019-01-20T12:18:31.682Z,21.20
2019-01-20T12:23:36.086Z,20.70
2019-01-20T12:28:40.537Z,20.80
2019-01-20T12:33:44.755Z,21.20
2019-01-20T12:38:48.719Z,21.10
2019-01-20T12:43:52.414Z,21.00
2019-01-20T12:48:56.120Z,20.50
2019-01-20T12:53:59.901Z,19.10
2019-01-20T12:59:04.772Z,18.40
2019-01-20T13:04:15.049Z,19.00
2019-01-20T13:09:18.921Z,19.80
2019-01-20T13:14:22.906Z,20.60
2019-01-20T13:19:26.860Z,21.60
2019-01-20T13:24:30.697Z,21.00
2019-01-20T13:29:50.849Z,18.40
2019-01-20T13:34:54.527Z,17.80
2019-01-20T13:40:16.843Z,16.40
2019-01-20T13:45:24.578Z,15.50
2019-01-20T13:50:28.520Z,14.30
2019-01-20T13:55:34.773Z,13.80
2019-01-20T14:00:38.535Z,11.60
2019-01-20T14:05:42.267Z,9.90
2019-01-20T14:10:46.079Z,8.70
2019-01-20T14:15:49.828Z,7.80
2019-01-20T14:20:53.803Z,7.10
2019-01-20T14:25:57.572Z,6.80
2019-01-20T14:31:01.882Z,6.50
2019-01-20T14:36:08.623Z,6.00
2019-01-20T14:41:13.210Z,6.00
2019-01-20T14:46:19.199Z,6.10
2019-01-20T14:51:23.591Z,5.90
2019-01-20T14:56:31.745Z,5.60
2019-01-20T15:01:35.726Z,5.10
2019-01-20T15:06:39.791Z,4.50
2019-01-20T15:11:43.695Z,4.10
2019-01-20T15:16:47.609Z,3.70
2019-01-20T15:21:51.644Z,3.50
2019-01-20T15:26:55.348Z,3.10
2019-01-20T15:31:59.399Z,2.90
2019-01-20T15:37:03.100Z,2.80
2019-01-20T15:42:06.867Z,2.50
2019-01-20T15:47:11.011Z,2.30
2019-01-20T15:52:15.045Z,2.00
2019-01-20T15:57:18.825Z,1.90
2019-01-20T16:02:22.625Z,1.80
2019-01-20T16:07:26.690Z,1.60
2019-01-20T16:12:30.421Z,1.60
2019-01-20T16:17:34.114Z,1.50
2019-01-20T16:22:38.097Z,1.30
2019-01-20T16:27:42.992Z,0.90
2019-01-20T16:32:46.873Z,1.00
2019-01-20T16:37:50.812Z,0.80
2019-01-20T16:42:56.601Z,0.70
2019-01-20T16:48:00.341Z,0.70
2019-01-20T16:53:04.294Z,0.50
2019-01-20T16:58:08.103Z,0.30
2019-01-20T17:03:11.884Z,0.30
2019-01-20T17:08:15.896Z,0.30
2019-01-20T17:13:19.661Z,0.20
2019-01-20T17:18:23.735Z,0.10
2019-01-20T17:23:27.518Z,-0.10
2019-01-20T17:28:31.550Z,-0.10
2019-01-20T17:33:35.261Z,-0.10
2019-01-20T17:38:38.915Z,-0.10
2019-01-20T17:43:42.605Z,0.00
2019-01-20T17:48:46.271Z,-0.30
2019-01-20T17:53:50.176Z,-0.50
2019-01-20T17:58:54.275Z,-0.60
2019-01-20T18:03:59.323Z,-0.50
2019-01-20T18:09:03.653Z,-0.60
2019-01-20T18:14:07.408Z,-0.70
2019-01-20T18:19:11.109Z,-0.90
2019-01-20T18:24:21.197Z,-0.90
2019-01-20T18:29:25.203Z,-1.00
2019-01-20T18:34:28.879Z,-1.00
2019-01-20T18:39:32.572Z,-1.00
2019-01-20T18:44:36.355Z,-1.10
2019-01-20T18:49:40.059Z,-1.00
2019-01-20T18:54:43.809Z,-1.00
2019-01-20T18:59:47.532Z,-1.20
2019-01-20T19:04:51.199Z,-1.40
2019-01-20T19:09:54.912Z,-1.60
2019-01-20T19:14:58.642Z,-1.70
2019-01-20T19:20:02.312Z,-1.70
2019-01-20T19:25:06.645Z,-1.70
2019-01-20T19:30:21.627Z,-1.70
2019-01-20T19:35:25.653Z,-1.70
2019-01-20T19:40:29.327Z,-1.90
2019-01-20T19:45:33.067Z,-1.90
2019-01-20T19:50:37.079Z,-2.10
2019-01-20T19:55:40.999Z,-2.20
2019-01-20T20:00:44.704Z,-2.30
2019-01-20T20:05:48.392Z,-2.40
2019-01-20T20:10:52.117Z,-2.30
2019-01-20T20:15:56.165Z,-2.30
2019-01-20T20:20:59.886Z,-2.30
2019-01-20T20:26:03.678Z,-2.40
2019-01-20T20:31:07.430Z,-2.40
2019-01-20T20:36:11.233Z,-2.20
2019-01-20T20:41:14.976Z,-2.10
2019-01-20T20:46:18.682Z,-2.10
2019-01-20T20:51:22.361Z,-2.00
2019-01-20T20:56:26.050Z,-2.10
2019-01-20T21:01:29.941Z,-2.50
2019-01-20T21:06:33.623Z,-2.70
2019-01-20T21:11:37.635Z,-2.90
2019-01-20T21:16:41.694Z,-3.00
2019-01-20T21:21:45.554Z,-3.10
2019-01-20T21:26:49.532Z,-3.20
2019-01-20T21:31:53.396Z,-3.30
2019-01-20T21:36:59.468Z,-3.30
2019-01-20T21:42:03.376Z,-3.20
2019-01-20T21:47:07.460Z,-3.20
2019-01-20T21:52:11.615Z,-3.30
2019-01-20T21:57:15.986Z,-3.40
2019-01-20T22:02:20.040Z,-3.50
2019-01-20T22:07:24.156Z,-3.50
2019-01-20T22:12:28.382Z,-3.50
2019-01-20T22:17:32.671Z,-3.40
2019-01-20T22:22:36.418Z,-3.30
2019-01-20T22:27:40.264Z,-3.20
2019-01-20T22:32:44.964Z,-3.10
2019-01-20T22:37:48.832Z,-3.20
2019-01-20T22:42:52.941Z,-3.30
2019-01-20T22:47:56.826Z,-3.20
2019-01-20T22:53:00.748Z,-3.20
2019-01-20T22:58:04.684Z,-3.40
2019-01-20T23:03:08.804Z,-3.40
2019-01-20T23:08:12.987Z,-3.30
2019-01-20T23:13:16.881Z,-3.40
2019-01-20T23:18:20.950Z,-3.70
2019-01-20T23:23:24.740Z,-3.80
2019-01-20T23:28:28.789Z,-3.70
2019-01-20T23:33:32.514Z,-3.90
2019-01-20T23:38:36.572Z,-3.60
2019-01-20T23:43:40.307Z,-3.80
2019-01-20T23:48:44.348Z,-3.80
2019-01-20T23:53:48.132Z,-3.90
2019-01-20T23:58:51.801Z,-4.00
